Batesland, South Dakota
Current Conditions -  °F | °C
As of 10:52 AM on Friday 24 Oct 2014 (Local Time) from KIEN Reporting Station
Clear Clear  
Wind Chill: 69°   Ceiling: Unl
Heat Index: 69°   Visibility: 10mi
Dew Point: 38°   Wind: 8mph
Humidity: 32%   Direction: 260°W
Pressure: 30.03"   Gusts: NA
Location:  43.13°N, 102.1°W
Report Text: KIEN 241652Z AUTO 26007KT 10SM CLR 21/03 A3003 RMK AO2 SLP164 T02060033
Loading
Personal Weather Stations






























Interactive Weather Map
Tropical Storm Tracking
New forecast layout! Learn more

10-Day Weather Forecast

Advertisements
Track Severe Weather on mobile